Aeroporto :
LOGIN :

Iscrizione | Disclaimer

   EN    FR    IT 

 










Sommario :    VFR   VFR Marginale   IFR   IFR Intensivo   IFR Molto Intensivo
Visibilità : 
Base nubi : 
>= 8 km
>= 3000ft
5 / 8 km
1000 / 3000 ft
1500m / 5 km
500 / 1000 ft
800 / 1500m
200 / 500 ft
< 800m
< 200 ft
Simboli :   Temporali  Nebbia  Neve Forte  Precipitazioni Forti  Vento > 20 kt
SIGMETs :   Varie  Temporali  Ghiacco  Turbolenza  Onda orograficha  Ceneri Vulcaniche






- Altitudine del aeroporto : 235 ft
- Codice IATA : BZG


EPBY - Bydgoszcz

ULTIMO METAR :
  • 270830Z VRB02KT CAVOK 16/06 Q1032

METARs OBSOLETI :
  • 270800Z VRB02KT CAVOK 14/08 Q1032
  • 270730Z VRB02KT CAVOK 13/07 Q1032
  • 270700Z 02003KT 330V060 CAVOK 12/08 Q1032
  • 270630Z VRB04KT 9999 FEW003 10/09 Q1032
  • 270600Z 32004KT 280V340 9999 SCT002 BKN004 08/08 Q1032

TAF TAF EPBY
Valido dal 27 a 06 ore il 28 a 06 ore UTC


270530Z 2706/2806 35005KT CAVOK
PROB30
TEMPO 2710/2717 SCT040TCU
BECMG 2801/2804 BKN014



MetMap, La meteo Aeronautica in un colpo d'occhio ! - Copyright ORBIFLY Dicembre 2007 - Disclaimer

ORBIFLY MET'MAP TEAM :

Programmazione e sviluppo : Alexandra Zaïnal
Concezione : Baudouin d'Aumeries
Aiuto per la programmazione : Marc-Olivier Méhu
Supporto tecnico e logistico : Manuel Goepfert
Aiuto per la traduzione : Arnaldo La Scala

Contatto : metmap@orbifly.com




FONTI E CREDITI :

   NOAA